• Join FlightAware (Why Join?)
  • Login
  • US Flag 
08:22AM EDT


 

Airport Tracker/Info


-or-


 

Live Flight TrackerFlight Track Log ✈ SWA1245 ✈ 04-Jan-2014 ✈ KLAS - KBOI

Flight Track Log - Related Links

Times and Time Zones

All times are in EST time to prevent confusion due to time zone crossing. See the SWA1245 flight status page for this flight to view local times or setup timezone preferences in your user account.

Time Position Orientation Groundspeed Altitude Reporting Facility
EST Latitude Longitude Course Direction KTS MPH feet Rate Location/Type
02:40AM 36.1325 -115.0803 75° East 237 273 6,000  Level Los Angeles Center
02:41AM 36.1361 -115.0422 83° East 234 269 7,000 2,460 Climbing Los Angeles Center
02:42AM 36.1467 -114.9439 82° East 288 331 9,700 2,040 Climbing Los Angeles Center
02:43AM 36.1569 -114.8303 84° East 326 375 11,200 2,460 Climbing Los Angeles Center
02:44AM 36.1856 -114.7200 72° East 336 387 14,700 2,460 Climbing Los Angeles Center
02:45AM 36.2639 -114.6592 32° Northeast 338 389 16,200 1,500 Climbing Los Angeles Center
02:46AM 36.3494 -114.5919 32° Northeast 361 415 17,800 1,800 Climbing Los Angeles Center
02:47AM 36.4392 -114.5225 32° Northeast 376 433 19,900 2,100 Climbing Los Angeles Center
02:48AM 36.5311 -114.4528 31° Northeast 385 443 22,100 2,040 Climbing Los Angeles Center
02:49AM 36.6233 -114.3836 31° Northeast 387 445 24,100 1,320 Climbing Los Angeles Center
02:50AM 36.7247 -114.3319 22° Northeast 406 467 24,800 1,380 Climbing Los Angeles Center
02:51AM 36.8306 -114.3581 349° North 392 451 26,900 1,740 Climbing Los Angeles Center
02:52AM 36.9328 -114.3833 349° North 379 436 28,400 1,500 Climbing Los Angeles Center
02:53AM 37.0372 -114.4106 348° North 381 438 30,000 1,680 Climbing Los Angeles Center
02:54AM 37.1386 -114.4358 349° North 377 434 31,900 1,560 Climbing Los Angeles Center
02:55AM 37.2358 -114.4617 348° North 366 421 33,200 1,080 Climbing Los Angeles Center
02:56AM 37.3314 -114.4839 350° North 360 414 34,100 1,080 Climbing Los Angeles Center
02:57AM 37.4300 -114.5094 348° North 359 413 35,400 840 Climbing Los Angeles Center
02:58AM 37.5269 -114.5350 348° North 358 412 36,000 240 Climbing Los Angeles Center
02:59AM 37.6428 -114.5628 349° North 355 409 36,000  Level Los Angeles Center
03:00AM 37.7583 -114.5933 348° North 354 407 36,000  Level Los Angeles Center
03:01AM 37.8561 -114.6175 349° North 355 409 36,000  Level Los Angeles Center
03:02AM 37.9289 -114.6389 347° North 355 409 36,000  Level Salt Lake Center
03:03AM 38.0258 -114.6644 348° North 355 409 36,000  Level Salt Lake Center
03:04AM 38.1233 -114.6900 348° North 356 410 36,000  Level Salt Lake Center
03:05AM 38.2200 -114.7150 349° North 355 409 36,000  Level Salt Lake Center
03:06AM 38.3175 -114.7408 348° North 356 410 36,000  Level Salt Lake Center
03:07AM 38.4153 -114.7664 348° North 357 411 36,000  Level Salt Lake Center
03:08AM 38.5128 -114.7897 349° North 357 411 36,000  Level Salt Lake Center
03:09AM 38.6092 -114.8142 349° North 354 407 36,000  Level Salt Lake Center
03:10AM 38.7056 -114.8389 349° North 353 406 36,000  Level Salt Lake Center
03:11AM 38.8014 -114.8642 348° North 352 405 36,000  Level Salt Lake Center
03:12AM 38.8967 -114.8894 348° North 351 404 36,000  Level Salt Lake Center
03:13AM 38.9922 -114.9158 348° North 351 404 36,000  Level Salt Lake Center
03:14AM 39.0869 -114.9408 348° North 350 403 36,000  Level Salt Lake Center
03:15AM 39.1833 -114.9703 347° North 346 398 36,000  Level Salt Lake Center
03:16AM 39.2886 -114.9986 348° North 344 396 36,000  Level Salt Lake Center
03:17AM 39.3797 -115.0206 349° North 346 398 36,000  Level Salt Lake Center
03:18AM 39.4714 -115.0433 349° North 349 402 36,000  Level Salt Lake Center
03:19AM 39.5611 -115.0672 348° North 345 397 36,000  Level Salt Lake Center
03:20AM 39.6658 -115.0956 348° North 344 396 36,000  Level Salt Lake Center
03:21AM 39.7547 -115.1197 348° North 342 394 36,000  Level Salt Lake Center
03:22AM 39.8433 -115.1436 348° North 341 392 36,000  Level Salt Lake Center
03:23AM 39.9447 -115.1725 348° North 335 386 36,000  Level Salt Lake Center
03:24AM 40.0336 -115.1964 348° North 338 389 36,000  Level Salt Lake Center
03:25AM 40.1222 -115.2203 348° North 339 390 36,000  Level Salt Lake Center
03:26AM 40.2242 -115.2492 348° North 338 389 36,000  Level Salt Lake Center
03:27AM 40.3128 -115.2736 348° North 339 390 36,000  Level Salt Lake Center
03:28AM 40.4025 -115.2986 348° North 341 392 36,000  Level Salt Lake Center
03:29AM 40.4872 -115.3239 347° North 338 389 36,000  Level Salt Lake Center
03:30AM 40.5875 -115.3508 348° North 331 381 36,000  Level Salt Lake Center
03:31AM 40.6764 -115.3758 348° North 339 390 36,000  Level Salt Lake Center
03:32AM 40.7631 -115.3994 348° North 336 387 36,000  Level Salt Lake Center
03:33AM 40.8658 -115.4292 348° North 339 390 36,000  Level Salt Lake Center
03:34AM 40.9536 -115.4528 349° North 336 387 36,000  Level Salt Lake Center
03:35AM 41.0417 -115.4775 348° North 338 389 36,000  Level Salt Lake Center
03:36AM 41.1414 -115.5061 348° North 333 383 36,000  Level Salt Lake Center
03:37AM 41.2272 -115.5308 348° North 330 380 36,000  Level Salt Lake Center
03:38AM 41.3139 -115.5556 348° North 332 382 36,000  Level Salt Lake Center
03:39AM 41.4022 -115.5797 348° North 336 387 36,000  Level Salt Lake Center
03:40AM 41.5039 -115.6106 347° North 336 387 36,000  Level Salt Lake Center
03:41AM 41.5911 -115.6339 349° North 334 384 36,000  Level Salt Lake Center
03:42AM 41.6781 -115.6594 348° North 335 386 36,000  Level Salt Lake Center
03:43AM 41.7806 -115.6889 348° North 337 388 36,000  Level Salt Lake Center
03:44AM 41.8686 -115.7153 347° North 337 388 36,000  Level Salt Lake Center
03:45AM 41.9542 -115.7414 347° North 332 382 36,000  Level Salt Lake Center
03:46AM 42.0556 -115.7706 348° North 333 383 36,000  Level Salt Lake Center
03:47AM 42.1403 -115.7947 348° North 330 380 36,000 -480 Level Salt Lake Center
03:48AM 42.2300 -115.8211 348° North 329 379 35,100 -1,980 Descending Salt Lake Center
03:49AM 42.3206 -115.8481 348° North 332 382 32,100 -2,640 Descending Salt Lake Center
03:50AM 42.4100 -115.8742 348° North 330 380 29,800 -2,340 Descending Salt Lake Center
03:51AM 42.4958 -115.8997 348° North 318 366 27,500 -2,220 Descending Salt Lake Center
03:52AM 42.5786 -115.9247 347° North 305 351 25,400 -2,040 Descending Salt Lake Center
03:53AM 42.6572 -115.9478 348° North 291 335 23,400 -2,100 Descending Salt Lake Center
03:54AM 42.7322 -115.9703 348° North 277 319 21,300 -2,340 Descending Salt Lake Center
03:55AM 42.7817 -115.9869 346° North 274 315 19,700 -2,400 Descending Salt Lake Center
03:55AM 42.7883 -115.9875 357° North 274 315 19,600 -1,800 Descending Salt Lake Center
03:55AM 42.8128 -115.9942 349° North 275 316 19,000 -1,440 Descending Salt Lake Center
03:56AM 42.8817 -116.0153 347° North 266 306 17,800 -1,620 Descending Salt Lake Center
03:57AM 42.9572 -116.0375 348° North 266 306 15,800 -2,040 Descending Salt Lake Center
03:58AM 43.0231 -116.0722 339° North 262 302 13,800 -2,160 Descending Salt Lake Center
03:59AM 43.0972 -116.1058 342° North 265 305 11,500 -1,860 Descending Salt Lake Center
04:00AM 43.1636 -116.1394 340° North 265 305 10,100 -1,440 Descending Salt Lake Center
04:01AM 43.2292 -116.1708 341° North 241 277 8,600 -1,740 Descending Salt Lake Center
04:02AM 43.2922 -116.1967 343° North 244 281 6,700 -1,500 Descending Salt Lake Center
04:03AM 43.3589 -116.2253 343° North 240 276 5,600 -900 Descending Salt Lake Center
04:04AM 43.4150 -116.2506 342° North 226 260 4,900 -600 Descending Salt Lake Center
04:05AM 43.4733 -116.2756 343° North 212 244 4,500 -240 Descending Salt Lake Center
04:06AM 43.5156 -116.3003 337° Northwest 179 206 4,500  Level Salt Lake Center
04:07AM 43.5447 -116.3558 306° West 170 196 4,500 -180 Level Salt Lake Center
04:08AM 43.5769 -116.3861 326° Northwest 167 192 4,200 -120 Descending Salt Lake Center
04:09AM 43.5953 -116.3269 67° East 169 194 4,300 -480 Climbing Salt Lake Center
04:10AM 43.5792 -116.2703 111° Southeast 157 181 3,300 -1,020 Descending Salt Lake Center